Time;durP1;ratioP1;P1;durP2;ratioP2;P2;SDS_P1;SDS_P2;PMS_P1;PMS_P2;Temp;Humidity;BMP_temperature;BMP_pressure;BME280_temperature;BME280_humidity;BME280_pressure;Samples;Min_cycle;Max_cycle;Signal;HPM_P1;HPM_P2
2024/02/20 00:02:04;;;;;;;6.93;2.15;;;9.60;79.40;;;;;;5072890;28;20612;-68
2024/02/20 00:04:33;;;;;;;5.28;2.35;;;9.60;79.80;;;;;;5072648;28;20194;-68
2024/02/20 00:07:00;;;;;;;5.50;2.10;;;9.70;79.30;;;;;;5072361;28;20300;-68
2024/02/20 00:09:27;;;;;;;3.63;1.95;;;9.60;79.30;;;;;;5072825;28;20202;-68
2024/02/20 00:11:54;;;;;;;2.95;1.58;;;9.50;79.60;;;;;;5072371;28;20225;-69
2024/02/20 00:14:21;;;;;;;7.47;2.30;;;9.50;79.80;;;;;;5072742;28;20645;-68
2024/02/20 00:16:49;;;;;;;3.00;1.80;;;9.50;80.20;;;;;;5072982;28;20295;-69
2024/02/20 00:19:16;;;;;;;3.05;1.73;;;9.50;79.80;;;;;;5072380;28;20221;-68
2024/02/20 00:21:46;;;;;;;5.75;1.50;;;9.40;79.70;;;;;;5072238;28;20641;-69
2024/02/20 00:24:13;;;;;;;2.72;1.50;;;9.40;79.70;;;;;;5072390;28;20198;-68
2024/02/20 00:26:40;;;;;;;3.78;1.45;;;9.40;79.40;;;;;;5072149;28;20194;-68
2024/02/20 00:29:07;;;;;;;3.92;1.60;;;9.40;79.10;;;;;;5072389;28;20305;-68
2024/02/20 00:31:36;;;;;;;3.42;1.88;;;9.30;79.10;;;;;;5072706;28;20301;-68
2024/02/20 00:34:03;;;;;;;3.00;1.58;;;9.50;79.30;;;;;;5072542;28;20221;-69
2024/02/20 00:36:30;;;;;;;2.78;1.63;;;9.40;79.00;;;;;;5072596;28;20286;-68
2024/02/20 00:39:03;;;;;;;2.92;1.55;;;9.40;79.30;;;;;;5072469;28;20233;-68
2024/02/20 00:41:31;;;;;;;5.57;1.67;;;9.40;79.40;;;;;;5072111;28;20214;-68
2024/02/20 00:43:58;;;;;;;4.38;1.70;;;9.50;80.20;;;;;;5072143;28;20280;-68
2024/02/20 00:46:25;;;;;;;3.85;1.95;;;9.40;79.50;;;;;;5072424;28;20194;-68
2024/02/20 00:48:52;;;;;;;3.78;2.00;;;9.50;80.10;;;;;;5072879;28;20305;-68
2024/02/20 00:51:22;;;;;;;3.15;1.45;;;9.50;80.10;;;;;;5072794;28;20221;-68
2024/02/20 00:53:49;;;;;;;5.07;1.73;;;9.50;79.90;;;;;;5076438;28;20612;-68
2024/02/20 00:56:18;;;;;;;8.10;1.65;;;9.50;79.70;;;;;;5076456;28;20198;-68
2024/02/20 00:58:45;;;;;;;4.00;1.60;;;9.50;79.70;;;;;;5076415;28;20332;-68
2024/02/20 01:01:12;;;;;;;2.70;1.30;;;9.50;79.80;;;;;;5076136;28;20715;-68
2024/02/20 01:03:42;;;;;;;3.70;1.75;;;9.50;79.50;;;;;;5076360;28;20190;-68
2024/02/20 01:06:10;;;;;;;4.75;2.13;;;9.50;79.30;;;;;;5076717;28;20197;-69
2024/02/20 01:08:38;;;;;;;4.45;1.60;;;9.60;80.40;;;;;;5076190;28;20214;-68
2024/02/20 01:11:05;;;;;;;2.33;1.40;;;9.60;79.40;;;;;;5076387;28;20543;-68
2024/02/20 01:13:33;;;;;;;3.88;1.50;;;9.60;79.80;;;;;;5075799;28;20711;-68
2024/02/20 01:16:00;;;;;;;4.15;1.77;;;9.60;80.10;;;;;;5075880;28;20723;-68
2024/02/20 01:18:27;;;;;;;4.70;2.05;;;9.60;80.30;;;;;;5075745;28;20675;-68
2024/02/20 01:20:55;;;;;;;4.00;1.33;;;9.70;80.50;;;;;;5075996;28;20285;-68
2024/02/20 01:23:22;;;;;;;2.80;1.45;;;9.70;81.10;;;;;;5076002;28;20193;-68
2024/02/20 01:25:49;;;;;;;3.25;1.23;;;9.70;81.20;;;;;;5075986;28;20186;-68
2024/02/20 01:28:17;;;;;;;2.95;1.50;;;9.70;81.50;;;;;;5075885;28;20214;-68
2024/02/20 01:30:47;;;;;;;2.40;1.30;;;9.80;81.30;;;;;;5075909;28;20611;-69
2024/02/20 01:33:14;;;;;;;2.03;1.10;;;9.90;80.30;;;;;;5075550;28;20213;-68
2024/02/20 01:35:42;;;;;;;2.10;0.95;;;9.90;79.20;;;;;;5075365;28;20256;-68
2024/02/20 01:38:10;;;;;;;1.85;0.80;;;9.90;78.30;;;;;;5075350;28;20216;-68
2024/02/20 01:40:38;;;;;;;2.33;0.90;;;9.90;77.20;;;;;;5075605;28;20197;-68
2024/02/20 01:43:06;;;;;;;3.03;1.08;;;9.80;76.70;;;;;;5075594;28;20257;-68
2024/02/20 01:45:36;;;;;;;1.90;0.75;;;9.80;76.60;;;;;;5075583;28;20198;-68
2024/02/20 01:48:05;;;;;;;2.00;1.10;;;9.70;76.70;;;;;;5075463;28;20305;-68
2024/02/20 01:50:34;;;;;;;2.55;0.95;;;9.70;76.60;;;;;;5075445;28;20199;-68
2024/02/20 01:53:02;;;;;;;2.22;1.02;;;9.70;76.80;;;;;;5075412;28;20226;-68
2024/02/20 01:55:30;;;;;;;1.90;0.85;;;9.60;77.10;;;;;;5075104;28;20248;-68
2024/02/20 01:57:57;;;;;;;1.90;0.90;;;9.60;76.80;;;;;;5075381;28;20624;-68
2024/02/20 02:00:25;;;;;;;1.90;0.85;;;9.50;77.50;;;;;;5075009;28;20186;-68
2024/02/20 02:02:52;;;;;;;2.10;0.90;;;9.50;78.90;;;;;;5075122;28;20194;-68
2024/02/20 02:05:21;;;;;;;2.08;0.88;;;9.50;78.50;;;;;;5075203;28;20223;-68
2024/02/20 02:07:49;;;;;;;2.05;0.70;;;9.40;78.80;;;;;;5074765;28;20232;-68
2024/02/20 02:10:16;;;;;;;2.20;1.00;;;9.40;79.10;;;;;;5074810;28;20192;-68
2024/02/20 02:12:44;;;;;;;1.60;0.50;;;9.40;79.40;;;;;;5074642;28;20736;-68
2024/02/20 02:15:11;;;;;;;2.10;0.90;;;9.40;79.70;;;;;;5075275;28;20628;-68
2024/02/20 02:17:38;;;;;;;1.80;0.82;;;9.40;80.00;;;;;;5074926;28;20289;-68
2024/02/20 02:20:06;;;;;;;2.20;1.00;;;9.40;80.20;;;;;;5074526;28;20194;-68
2024/02/20 02:22:35;;;;;;;1.95;0.93;;;9.40;80.20;;;;;;5074517;28;20194;-68
2024/02/20 02:25:03;;;;;;;2.30;0.90;;;9.40;79.20;;;;;;5074537;28;20229;-68
2024/02/20 02:27:31;;;;;;;2.78;0.95;;;9.40;79.20;;;;;;5074328;28;20233;-68
2024/02/20 02:29:58;;;;;;;2.38;0.95;;;9.30;79.20;;;;;;5074337;28;20736;-68
2024/02/20 02:32:25;;;;;;;3.15;0.90;;;9.30;79.60;;;;;;5073300;28;20201;-69
2024/02/20 02:34:52;;;;;;;2.80;1.52;;;9.30;79.70;;;;;;5074019;28;20240;-68
2024/02/20 02:37:19;;;;;;;3.13;1.15;;;9.30;79.60;;;;;;5074668;28;20226;-68
2024/02/20 02:39:46;;;;;;;2.58;1.55;;;9.30;78.90;;;;;;5074043;28;20190;-68
2024/02/20 02:42:13;;;;;;;6.53;1.60;;;9.20;78.50;;;;;;5074265;28;20263;-68
2024/02/20 02:44:43;;;;;;;3.08;1.85;;;9.20;78.80;;;;;;5074209;28;20636;-68
2024/02/20 02:47:11;;;;;;;2.95;1.60;;;9.20;79.20;;;;;;5074618;28;20232;-68
2024/02/20 02:49:42;;;;;;;2.38;1.35;;;9.10;78.20;;;;;;5074370;28;20677;-68
2024/02/20 02:52:15;;;;;;;2.30;1.20;;;9.20;78.10;;;;;;5074085;28;20213;-68
2024/02/20 02:54:42;;;;;;;2.20;0.90;;;9.20;78.50;;;;;;5074382;28;20206;-68
2024/02/20 02:57:09;;;;;;;2.53;2.00;;;9.10;78.10;;;;;;5074291;28;20193;-68
2024/02/20 02:59:36;;;;;;;2.78;2.50;;;9.10;78.60;;;;;;5074130;28;20285;-68
2024/02/20 03:02:05;;;;;;;3.15;2.83;;;8.90;78.80;;;;;;5073761;28;20186;-68
2024/02/20 03:04:32;;;;;;;1.98;0.93;;;8.90;79.60;;;;;;5074051;28;20277;-68
2024/02/20 03:06:59;;;;;;;2.15;1.00;;;8.80;79.00;;;;;;5073981;28;20633;-68
2024/02/20 03:09:26;;;;;;;3.35;0.80;;;8.80;78.90;;;;;;5073613;28;20656;-68
2024/02/20 03:11:53;;;;;;;1.98;1.13;;;8.80;79.10;;;;;;5072546;28;20274;-68
2024/02/20 03:14:21;;;;;;;2.53;1.70;;;8.70;78.90;;;;;;5072533;28;20675;-68
2024/02/20 03:16:48;;;;;;;2.33;1.55;;;8.70;79.40;;;;;;5073386;28;20202;-68
2024/02/20 03:19:17;;;;;;;1.90;0.80;;;8.70;79.20;;;;;;5073916;28;20330;-68
2024/02/20 03:21:44;;;;;;;1.88;0.70;;;8.60;79.80;;;;;;5073537;28;20190;-68
2024/02/20 03:24:11;;;;;;;2.00;1.00;;;8.50;80.50;;;;;;5073429;28;20719;-68
2024/02/20 03:26:39;;;;;;;1.90;1.00;;;8.50;80.90;;;;;;5073721;28;20289;-68
2024/02/20 03:29:07;;;;;;;2.35;1.77;;;8.50;80.60;;;;;;5073548;28;20690;-68
2024/02/20 03:31:34;;;;;;;2.50;1.85;;;8.40;80.80;;;;;;5073337;28;20197;-68
2024/02/20 03:34:01;;;;;;;2.75;2.08;;;8.40;81.30;;;;;;5073578;28;20244;-68
2024/02/20 03:36:30;;;;;;;2.42;1.02;;;8.40;81.40;;;;;;5073686;28;20198;-68
2024/02/20 03:38:57;;;;;;;1.90;1.00;;;8.40;81.90;;;;;;5073623;28;20256;-68
2024/02/20 03:41:24;;;;;;;2.00;0.90;;;8.40;82.00;;;;;;5073155;28;20214;-68
2024/02/20 03:43:51;;;;;;;2.95;1.95;;;8.50;81.90;;;;;;5072714;28;20183;-68
2024/02/20 03:46:18;;;;;;;2.90;1.80;;;8.40;82.00;;;;;;5073104;28;20187;-68
2024/02/20 03:48:45;;;;;;;2.72;1.55;;;8.40;82.60;;;;;;5073628;28;20367;-68
2024/02/20 03:51:12;;;;;;;2.20;1.10;;;8.40;82.40;;;;;;5073066;28;20224;-68
2024/02/20 03:53:41;;;;;;;2.33;1.20;;;8.40;82.10;;;;;;5073573;28;20247;-68
2024/02/20 03:56:12;;;;;;;3.50;1.30;;;8.30;82.40;;;;;;5073185;28;20194;-68
2024/02/20 03:58:39;;;;;;;3.80;2.20;;;8.40;82.40;;;;;;5073494;28;20201;-68
2024/02/20 04:01:07;;;;;;;2.22;1.13;;;8.30;82.50;;;;;;5073392;28;20217;-68
2024/02/20 04:03:34;;;;;;;2.72;1.08;;;8.30;82.40;;;;;;5073423;28;20281;-68
2024/02/20 04:06:01;;;;;;;3.50;1.23;;;8.30;82.60;;;;;;5073060;28;20656;-68
2024/02/20 04:08:28;;;;;;;3.08;1.55;;;8.30;82.70;;;;;;5073263;28;20574;-68
2024/02/20 04:10:57;;;;;;;2.80;1.10;;;8.30;82.00;;;;;;5073285;28;20233;-68
2024/02/20 04:13:25;;;;;;;2.30;1.20;;;8.30;81.90;;;;;;5072997;28;20233;-68
2024/02/20 04:15:52;;;;;;;2.05;0.80;;;8.20;82.40;;;;;;5073223;28;20193;-68
2024/02/20 04:18:19;;;;;;;1.90;0.93;;;8.30;82.10;;;;;;5073323;28;20222;-68
2024/02/20 04:20:46;;;;;;;2.00;0.80;;;8.30;81.50;;;;;;5073251;28;20186;-68
2024/02/20 04:23:13;;;;;;;1.80;0.82;;;8.20;82.40;;;;;;5073308;28;20194;-68
2024/02/20 04:25:40;;;;;;;3.20;0.90;;;8.20;82.50;;;;;;5073554;28;20195;-68
2024/02/20 04:28:09;;;;;;;2.47;1.10;;;8.20;82.60;;;;;;5077079;28;20190;-68
2024/02/20 04:30:39;;;;;;;2.40;0.95;;;8.30;82.60;;;;;;5077073;28;20293;-68
2024/02/20 04:33:06;;;;;;;1.80;0.70;;;8.30;82.10;;;;;;5077039;28;20572;-68
2024/02/20 04:35:33;;;;;;;1.80;0.80;;;8.30;81.60;;;;;;5076422;28;20225;-68
2024/02/20 04:38:00;;;;;;;2.00;0.88;;;8.40;81.10;;;;;;5076481;28;20225;-68
2024/02/20 04:40:27;;;;;;;1.80;0.85;;;8.30;80.90;;;;;;5076748;28;20250;-68
2024/02/20 04:42:54;;;;;;;1.80;0.70;;;8.30;81.30;;;;;;5076754;28;20222;-68
2024/02/20 04:45:22;;;;;;;2.03;0.70;;;8.30;81.50;;;;;;5076662;28;20281;-67
2024/02/20 04:47:49;;;;;;;2.28;1.15;;;8.30;80.90;;;;;;5076669;28;20671;-68
2024/02/20 04:50:18;;;;;;;2.00;1.17;;;8.20;81.40;;;;;;5076670;28;20251;-68
2024/02/20 04:52:45;;;;;;;2.00;0.90;;;8.30;81.20;;;;;;5076283;28;20642;-68
2024/02/20 04:55:12;;;;;;;2.20;1.00;;;8.30;81.30;;;;;;5076599;28;20277;-67
2024/02/20 04:57:39;;;;;;;1.73;0.70;;;8.20;81.50;;;;;;5076659;28;20201;-68
2024/02/20 05:00:10;;;;;;;1.80;0.70;;;8.30;81.80;;;;;;5076069;28;20246;-68
2024/02/20 05:02:40;;;;;;;2.90;1.00;;;8.20;81.80;;;;;;5076117;28;20701;-68
2024/02/20 05:05:08;;;;;;;2.17;1.40;;;8.30;82.40;;;;;;5076310;28;20265;-68
2024/02/20 05:07:35;;;;;;;2.20;1.05;;;8.30;82.20;;;;;;5076209;28;20186;-68
2024/02/20 05:10:02;;;;;;;2.30;0.98;;;8.20;82.40;;;;;;5076444;28;20193;-69
2024/02/20 05:12:29;;;;;;;2.08;0.90;;;8.20;82.70;;;;;;5076136;28;20197;-68
2024/02/20 05:14:56;;;;;;;2.10;0.82;;;8.20;82.50;;;;;;5075897;28;20926;-68
2024/02/20 05:17:23;;;;;;;1.88;0.80;;;8.30;82.50;;;;;;5076076;28;20235;-68
2024/02/20 05:19:51;;;;;;;2.42;0.90;;;8.30;82.50;;;;;;5075871;28;20245;-68
2024/02/20 05:22:19;;;;;;;1.77;0.80;;;8.30;82.60;;;;;;5076027;28;20226;-68
2024/02/20 05:24:46;;;;;;;1.98;0.82;;;8.30;82.90;;;;;;5076073;28;20194;-68
2024/02/20 05:27:13;;;;;;;1.77;0.77;;;8.30;83.20;;;;;;5075957;28;20190;-68
2024/02/20 05:29:40;;;;;;;2.25;1.30;;;8.30;83.00;;;;;;5073946;28;20194;-68
2024/02/20 05:32:07;;;;;;;2.20;1.40;;;8.30;83.00;;;;;;5075800;28;20607;-69
2024/02/20 05:34:34;;;;;;;2.10;1.20;;;8.30;82.80;;;;;;5075779;28;20186;-68
2024/02/20 05:37:02;;;;;;;1.80;0.80;;;8.30;82.70;;;;;;5074670;28;20255;-68
2024/02/20 05:39:29;;;;;;;2.15;1.33;;;8.30;82.60;;;;;;5075322;28;20279;-68
2024/02/20 05:41:57;;;;;;;2.60;1.30;;;8.30;82.40;;;;;;5075125;28;20229;-68
2024/02/20 05:44:24;;;;;;;2.05;0.80;;;8.30;82.60;;;;;;5075611;28;20187;-68
2024/02/20 05:46:51;;;;;;;2.13;0.80;;;8.30;82.60;;;;;;5075540;28;20194;-68
2024/02/20 05:49:18;;;;;;;1.80;0.75;;;8.30;82.40;;;;;;5075191;28;20198;-68
2024/02/20 05:51:45;;;;;;;1.90;0.88;;;8.30;82.10;;;;;;5075316;28;20616;-68
2024/02/20 05:54:13;;;;;;;1.90;0.82;;;8.30;82.10;;;;;;5074995;28;20194;-68
2024/02/20 05:56:43;;;;;;;1.90;0.70;;;8.30;82.00;;;;;;5075055;28;20247;-68
2024/02/20 05:59:09;;;;;;;2.00;0.88;;;8.40;81.50;;;;;;5075357;28;20314;-68
2024/02/20 06:01:36;;;;;;;2.40;0.93;;;8.40;81.10;;;;;;5074988;28;20722;-68
2024/02/20 06:04:05;;;;;;;2.80;0.80;;;8.40;81.10;;;;;;5073883;28;20236;-68
2024/02/20 06:06:34;;;;;;;2.67;1.38;;;8.30;81.20;;;;;;5074873;28;20190;-68
2024/02/20 06:09:01;;;;;;;2.70;1.23;;;8.30;81.50;;;;;;5074861;28;20652;-68
2024/02/20 06:11:30;;;;;;;2.00;1.00;;;8.40;80.80;;;;;;5074703;28;20645;-68
2024/02/20 06:13:57;;;;;;;1.80;0.80;;;8.40;80.10;;;;;;5075057;28;20380;-69
2024/02/20 06:16:25;;;;;;;2.00;0.90;;;8.30;80.30;;;;;;5074902;28;20604;-68
2024/02/20 06:18:52;;;;;;;2.40;1.30;;;8.30;80.70;;;;;;5073397;28;20272;-68
2024/02/20 06:21:20;;;;;;;2.00;1.00;;;8.30;80.60;;;;;;5073168;28;20588;-68
2024/02/20 06:23:47;;;;;;;2.25;1.05;;;8.30;80.70;;;;;;5074507;28;20194;-68
2024/02/20 06:26:17;;;;;;;1.85;0.77;;;8.30;80.50;;;;;;5074152;28;20229;-68
2024/02/20 06:28:45;;;;;;;2.38;1.15;;;8.30;80.50;;;;;;5074732;28;20244;-68
2024/02/20 06:31:12;;;;;;;3.85;2.53;;;8.30;80.80;;;;;;5074690;28;20186;-69
2024/02/20 06:33:41;;;;;;;3.97;1.33;;;8.30;80.80;;;;;;5074758;28;20709;-69
2024/02/20 06:36:08;;;;;;;2.80;1.10;;;8.30;81.40;;;;;;5073884;28;20197;-68
2024/02/20 06:38:35;;;;;;;2.28;1.13;;;8.30;81.20;;;;;;5074693;28;20197;-68
2024/02/20 06:41:03;;;;;;;2.92;1.38;;;8.30;80.90;;;;;;5073898;28;20222;-68
2024/02/20 06:43:30;;;;;;;2.00;1.10;;;8.30;82.00;;;;;;5074484;28;20194;-68
2024/02/20 06:45:58;;;;;;;2.20;1.20;;;8.30;81.00;;;;;;5074474;28;20229;-68
2024/02/20 06:48:25;;;;;;;2.20;1.33;;;8.30;81.00;;;;;;5073398;28;20226;-68
2024/02/20 06:50:53;;;;;;;2.70;1.40;;;8.30;81.60;;;;;;5074141;28;20285;-67
2024/02/20 06:53:20;;;;;;;2.33;1.23;;;8.30;81.70;;;;;;5073557;28;20656;-67
2024/02/20 06:55:47;;;;;;;2.10;0.90;;;8.30;82.20;;;;;;5073900;28;20190;-67
2024/02/20 06:58:14;;;;;;;3.28;1.10;;;8.30;82.20;;;;;;5073516;28;20203;-69
2024/02/20 07:00:41;;;;;;;2.25;1.20;;;8.40;82.60;;;;;;5073714;28;20267;-67
2024/02/20 07:03:10;;;;;;;2.03;1.00;;;8.40;82.60;;;;;;5073470;28;20288;-68
2024/02/20 07:05:37;;;;;;;2.28;1.10;;;8.40;82.80;;;;;;5073476;28;20194;-68
2024/02/20 07:08:04;;;;;;;2.83;1.05;;;8.40;82.80;;;;;;5073834;28;20188;-68
2024/02/20 07:10:31;;;;;;;2.50;1.05;;;8.40;83.10;;;;;;5073717;28;20205;-67
2024/02/20 07:12:59;;;;;;;3.00;1.75;;;8.40;83.30;;;;;;5073322;28;20244;-68
2024/02/20 07:15:26;;;;;;;2.40;1.40;;;8.40;83.50;;;;;;5073290;28;20190;-68
2024/02/20 07:17:53;;;;;;;2.90;1.30;;;8.30;83.70;;;;;;5073256;28;20226;-68
2024/02/20 07:20:23;;;;;;;2.00;1.00;;;8.40;84.20;;;;;;5073641;28;20218;-67
2024/02/20 07:22:50;;;;;;;3.28;2.58;;;8.40;83.60;;;;;;5073326;28;20186;-68
2024/02/20 07:25:18;;;;;;;3.33;1.30;;;8.40;84.30;;;;;;5073528;28;20281;-67
2024/02/20 07:27:46;;;;;;;6.28;2.53;;;8.40;83.50;;;;;;5073531;28;20550;-68
2024/02/20 07:30:15;;;;;;;2.95;1.42;;;8.40;83.90;;;;;;5073159;28;20667;-68
2024/02/20 07:32:42;;;;;;;2.60;1.38;;;8.50;83.80;;;;;;5069704;28;20273;-68
2024/02/20 07:35:11;;;;;;;5.95;1.95;;;8.50;84.00;;;;;;5071232;28;20192;-68
2024/02/20 07:37:40;;;;;;;6.15;2.10;;;8.50;84.20;;;;;;5072514;28;20201;-68
2024/02/20 07:40:09;;;;;;;3.25;2.20;;;8.50;84.30;;;;;;5072937;28;20214;-67
2024/02/20 07:42:37;;;;;;;2.70;1.70;;;8.60;84.50;;;;;;5072777;28;20236;-68
2024/02/20 07:45:04;;;;;;;3.13;1.95;;;8.60;83.80;;;;;;5073265;28;20186;-67
2024/02/20 07:47:31;;;;;;;3.00;1.85;;;8.60;83.10;;;;;;5073292;28;20271;-68
2024/02/20 07:49:58;;;;;;;2.80;1.50;;;8.60;82.80;;;;;;5073275;28;20240;-68
2024/02/20 07:52:25;;;;;;;2.17;1.17;;;8.60;82.80;;;;;;5072947;28;20652;-67
2024/02/20 07:54:59;;;;;;;2.50;1.08;;;8.60;82.40;;;;;;5060426;28;20781;-68
2024/02/20 07:57:26;;;;;;;2.70;0.90;;;8.60;83.30;;;;;;5035670;28;20185;-68
2024/02/20 07:59:53;;;;;;;2.10;0.95;;;8.60;83.10;;;;;;5031079;28;20594;-68
2024/02/20 08:02:20;;;;;;;2.50;1.40;;;8.60;83.20;;;;;;5092857;28;20310;-67
2024/02/20 08:04:47;;;;;;;3.55;1.85;;;8.60;82.40;;;;;;5096246;28;20280;-68
2024/02/20 08:07:14;;;;;;;2.58;1.52;;;8.60;82.80;;;;;;5096348;28;20251;-67
2024/02/20 08:09:41;;;;;;;2.88;1.65;;;8.50;83.40;;;;;;5096394;28;20619;-68
2024/02/20 08:12:10;;;;;;;2.90;1.80;;;8.60;84.70;;;;;;5097305;28;20195;-68
2024/02/20 08:14:37;;;;;;;6.35;2.65;;;8.60;82.70;;;;;;5097275;28;20194;-68
2024/02/20 08:17:04;;;;;;;3.42;2.20;;;8.60;80.20;;;;;;5097240;28;20242;-68
2024/02/20 08:19:31;;;;;;;8.55;2.00;;;8.60;81.00;;;;;;5096640;28;20232;-68
2024/02/20 08:21:58;;;;;;;5.68;2.20;;;8.50;80.00;;;;;;5096767;28;20232;-68
2024/02/20 08:24:25;;;;;;;5.15;2.15;;;8.50;79.80;;;;;;5097166;28;20235;-68
2024/02/20 08:26:53;;;;;;;3.60;1.63;;;8.50;79.50;;;;;;5096888;28;20251;-68
2024/02/20 08:29:23;;;;;;;5.82;2.17;;;8.50;79.20;;;;;;5096686;28;20224;-68
2024/02/20 08:31:50;;;;;;;3.25;2.15;;;8.50;79.00;;;;;;5096939;28;20258;-68
2024/02/20 08:34:17;;;;;;;4.40;1.80;;;8.40;79.20;;;;;;5096933;28;20189;-67
2024/02/20 08:36:44;;;;;;;4.95;1.55;;;8.40;79.40;;;;;;5096609;28;20185;-67
2024/02/20 08:39:12;;;;;;;4.03;2.10;;;8.40;79.50;;;;;;5096697;28;20201;-68
2024/02/20 08:41:39;;;;;;;5.95;2.00;;;8.40;80.40;;;;;;5096415;28;20275;-67
2024/02/20 08:44:07;;;;;;;10.82;1.88;;;8.40;80.40;;;;;;5096706;28;20190;-67
2024/02/20 08:46:35;;;;;;;7.97;2.15;;;8.40;80.40;;;;;;5096867;28;20203;-67
2024/02/20 08:49:03;;;;;;;6.80;3.03;;;8.50;80.40;;;;;;5096724;28;20519;-67
2024/02/20 08:51:30;;;;;;;7.25;2.05;;;8.50;80.50;;;;;;5096258;28;20204;-68
2024/02/20 08:53:57;;;;;;;4.70;2.03;;;8.60;80.70;;;;;;5096633;28;20239;-67
2024/02/20 08:56:23;;;;;;;5.15;2.65;;;8.60;81.20;;;;;;5096454;28;20197;-67
2024/02/20 08:58:51;;;;;;;5.35;1.77;;;8.70;81.20;;;;;;5096207;28;20255;-68
2024/02/20 09:01:18;;;;;;;4.25;3.10;;;8.90;80.80;;;;;;5096303;28;20300;-68
2024/02/20 09:03:47;;;;;;;7.03;3.20;;;9.00;80.80;;;;;;5096335;28;20192;-67
2024/02/20 09:06:14;;;;;;;6.47;2.47;;;9.20;81.20;;;;;;5096299;28;20193;-67
2024/02/20 09:08:41;;;;;;;7.90;1.85;;;9.30;79.80;;;;;;5096153;28;20199;-67
2024/02/20 09:11:07;;;;;;;4.95;2.90;;;9.40;78.50;;;;;;5095366;28;20288;-68
2024/02/20 09:13:36;;;;;;;9.32;2.45;;;9.40;77.70;;;;;;5096027;28;20221;-67
2024/02/20 09:16:03;;;;;;;4.50;2.22;;;9.40;77.10;;;;;;5096068;28;20221;-67
2024/02/20 09:18:34;;;;;;;6.00;2.55;;;9.50;74.60;;;;;;5095813;28;20190;-68
2024/02/20 09:21:02;;;;;;;14.52;4.55;;;9.50;75.20;;;;;;5096040;28;20216;-67
2024/02/20 09:23:30;;;;;;;6.95;2.20;;;9.60;75.30;;;;;;5096038;28;20216;-67
2024/02/20 09:25:57;;;;;;;7.38;2.47;;;9.60;74.60;;;;;;5095984;28;20194;-68
2024/02/20 09:28:24;;;;;;;8.27;2.40;;;9.70;74.10;;;;;;5095600;28;20225;-67
2024/02/20 09:30:51;;;;;;;4.80;2.17;;;9.70;73.60;;;;;;5095527;28;20205;-67
2024/02/20 09:33:18;;;;;;;6.53;2.72;;;9.60;73.90;;;;;;5095928;28;20193;-68
2024/02/20 09:35:45;;;;;;;4.60;2.10;;;9.60;73.80;;;;;;5095799;28;20212;-68
2024/02/20 09:38:16;;;;;;;6.55;2.30;;;9.70;74.00;;;;;;5095711;28;20235;-67
2024/02/20 09:40:43;;;;;;;7.57;2.30;;;9.70;74.00;;;;;;5095568;28;20302;-68
2024/02/20 09:43:10;;;;;;;4.43;2.38;;;9.70;73.60;;;;;;5095720;28;20365;-67
2024/02/20 09:45:41;;;;;;;5.88;2.00;;;9.70;73.50;;;;;;5095579;28;20200;-68
2024/02/20 09:48:10;;;;;;;5.40;2.47;;;9.70;73.60;;;;;;5095342;28;20213;-68
2024/02/20 09:50:40;;;;;;;4.10;1.67;;;9.70;74.00;;;;;;5095126;28;20205;-68
2024/02/20 09:53:08;;;;;;;5.70;1.98;;;9.80;73.00;;;;;;5095359;28;20190;-68
2024/02/20 09:55:36;;;;;;;6.25;2.45;;;9.80;72.40;;;;;;5095357;28;20228;-68
2024/02/20 09:58:04;;;;;;;6.50;2.40;;;9.90;72.90;;;;;;5095032;28;20253;-68
2024/02/20 10:00:30;;;;;;;8.10;2.13;;;10.00;72.60;;;;;;5095275;28;20663;-68
2024/02/20 10:03:01;;;;;;;7.57;2.30;;;10.20;72.40;;;;;;5095124;28;20244;-68
2024/02/20 10:05:31;;;;;;;7.10;1.90;;;10.40;72.20;;;;;;5095305;28;20600;-68
2024/02/20 10:07:59;;;;;;;9.60;2.75;;;10.70;69.50;;;;;;5095235;28;20194;-67
2024/02/20 10:10:27;;;;;;;4.88;2.90;;;10.80;67.30;;;;;;5095083;28;20197;-68
2024/02/20 10:13:00;;;;;;;7.38;2.75;;;10.80;68.00;;;;;;5095176;28;20185;-68
2024/02/20 10:15:27;;;;;;;3.67;1.90;;;10.90;68.50;;;;;;5094732;28;20185;-68
2024/02/20 10:18:01;;;;;;;5.20;2.23;;;11.10;68.30;;;;;;5094910;28;20434;-68
2024/02/20 10:20:29;;;;;;;4.53;2.10;;;11.20;69.40;;;;;;5094690;28;20810;-68
2024/02/20 10:23:05;;;;;;;6.83;2.43;;;11.40;68.20;;;;;;5093750;28;20441;-68
2024/02/20 10:25:32;;;;;;;6.40;2.10;;;11.60;67.00;;;;;;5094698;28;20437;-68
2024/02/20 10:28:00;;;;;;;5.20;2.20;;;11.70;64.80;;;;;;5094802;28;20463;-68
2024/02/20 10:30:27;;;;;;;3.60;1.93;;;11.70;62.30;;;;;;5094721;28;20443;-67
2024/02/20 10:32:54;;;;;;;7.30;1.93;;;11.60;60.10;;;;;;5094614;28;20516;-68
2024/02/20 10:35:23;;;;;;;4.73;1.63;;;11.60;59.00;;;;;;5094310;28;20436;-68
2024/02/20 10:38:00;;;;;;;6.37;2.33;;;11.60;59.10;;;;;;5094321;28;20435;-68
2024/02/20 10:40:27;;;;;;;7.00;1.90;;;11.50;59.80;;;;;;5094128;28;20462;-68
2024/02/20 10:42:55;;;;;;;3.43;1.90;;;11.40;60.00;;;;;;5093872;28;20467;-68
2024/02/20 10:45:25;;;;;;;4.47;2.10;;;11.40;59.10;;;;;;5094419;28;20465;-68
2024/02/20 10:47:55;;;;;;;5.03;1.60;;;11.30;58.40;;;;;;5094066;28;20467;-68
2024/02/20 10:50:22;;;;;;;5.13;2.33;;;11.30;58.20;;;;;;5093977;28;20440;-67
2024/02/20 10:52:51;;;;;;;6.27;2.70;;;11.30;56.90;;;;;;5094136;28;20451;-67
2024/02/20 10:55:19;;;;;;;4.90;1.87;;;11.30;56.20;;;;;;5093854;28;20431;-68
2024/02/20 10:57:48;;;;;;;3.80;1.57;;;11.20;55.80;;;;;;5094256;28;20467;-68
2024/02/20 11:00:18;;;;;;;3.23;1.77;;;11.10;56.60;;;;;;5094010;28;20516;-68
2024/02/20 11:02:49;;;;;;;2.70;1.60;;;11.10;57.10;;;;;;5093999;28;20584;-68
2024/02/20 11:05:17;;;;;;;4.30;1.80;;;11.20;57.80;;;;;;5094096;28;20446;-68
2024/02/20 11:07:45;;;;;;;4.30;1.80;;;11.60;58.60;;;;;;5093754;28;20431;-68
2024/02/20 11:10:17;;;;;;;3.20;1.70;;;12.60;58.20;;;;;;5093737;28;20430;-68
2024/02/20 11:12:44;;;;;;;4.33;1.83;;;13.30;55.10;;;;;;5092678;28;20430;-70
2024/02/20 11:15:14;;;;;;;4.93;1.70;;;14.20;52.20;;;;;;5093398;28;20940;-68
2024/02/20 11:17:42;;;;;;;3.60;1.27;;;15.10;50.80;;;;;;5094098;28;20427;-68
2024/02/20 11:20:16;;;;;;;7.07;1.27;;;16.40;50.20;;;;;;5093832;28;20438;-69
2024/02/20 11:22:43;;;;;;;7.13;2.90;;;17.50;47.90;;;;;;5093846;28;20736;-69
2024/02/20 11:25:14;;;;;;;11.30;3.93;;;18.40;44.70;;;;;;5093420;28;20456;-69
2024/02/20 11:27:42;;;;;;;5.47;2.50;;;18.40;40.80;;;;;;5093757;28;20833;-69
2024/02/20 11:30:18;;;;;;;4.10;1.73;;;18.00;39.70;;;;;;5093395;28;20932;-69
2024/02/20 11:32:46;;;;;;;4.33;1.30;;;17.70;38.70;;;;;;5093757;28;20505;-69
2024/02/20 11:35:25;;;;;;;6.03;1.33;;;17.60;39.60;;;;;;5093401;28;20465;-69
2024/02/20 11:37:54;;;;;;;10.23;2.03;;;17.80;39.50;;;;;;5093237;28;20429;-69
2024/02/20 11:40:28;;;;;;;3.90;1.30;;;17.90;39.40;;;;;;5089820;28;20457;-69
2024/02/20 11:42:59;;;;;;;5.43;1.90;;;17.90;40.00;;;;;;5072730;28;20558;-69
2024/02/20 11:45:29;;;;;;;7.60;2.10;;;17.80;39.70;;;;;;5076514;28;20478;-69
2024/02/20 11:48:07;;;;;;;4.80;1.57;;;17.60;38.90;;;;;;5073539;28;20424;-69
2024/02/20 11:50:37;;;;;;;8.27;1.77;;;17.60;39.00;;;;;;5072939;28;20913;-69
2024/02/20 11:53:05;;;;;;;4.17;1.60;;;17.50;38.00;;;;;;5072977;28;20433;-69
2024/02/20 11:55:33;;;;;;;4.97;1.67;;;17.20;39.00;;;;;;5073386;28;20466;-68
2024/02/20 11:58:01;;;;;;;7.73;1.93;;;16.80;38.00;;;;;;5072933;28;20447;-68
2024/02/20 12:00:29;;;;;;;5.30;1.73;;;16.50;38.50;;;;;;5072750;28;20449;-69
2024/02/20 12:02:56;;;;;;;4.47;1.40;;;16.60;38.50;;;;;;5073160;28;20530;-68
2024/02/20 12:05:25;;;;;;;5.40;1.77;;;16.40;38.10;;;;;;5073229;28;20503;-68
2024/02/20 12:07:56;;;;;;;5.70;2.67;;;16.00;38.20;;;;;;5073063;28;20435;-68
2024/02/20 12:10:27;;;;;;;6.87;1.90;;;15.70;38.70;;;;;;5073179;28;20425;-68
2024/02/20 12:12:54;;;;;;;3.30;1.40;;;15.20;39.10;;;;;;5072787;28;20431;-68
2024/02/20 12:15:21;;;;;;;6.93;1.73;;;14.80;39.40;;;;;;5076762;28;20433;-68
2024/02/20 12:17:48;;;;;;;4.93;1.63;;;14.50;40.20;;;;;;5092323;28;20445;-68
2024/02/20 12:20:15;;;;;;;8.80;2.20;;;14.20;39.80;;;;;;5092722;28;20926;-68
2024/02/20 12:22:44;;;;;;;8.83;1.83;;;14.00;39.60;;;;;;5091935;28;20477;-68
2024/02/20 12:25:17;;;;;;;3.90;1.67;;;13.80;40.10;;;;;;5084733;28;20432;-68
2024/02/20 12:27:46;;;;;;;5.43;1.97;;;13.60;41.20;;;;;;5072470;28;20914;-67
2024/02/20 12:30:14;;;;;;;5.40;2.83;;;13.40;41.60;;;;;;5072165;28;20428;-67
2024/02/20 12:32:41;;;;;;;5.63;1.60;;;13.30;43.50;;;;;;5072678;28;20452;-68
2024/02/20 12:35:09;;;;;;;4.90;1.80;;;13.30;43.80;;;;;;5072427;28;20507;-68
2024/02/20 12:37:36;;;;;;;6.03;1.67;;;13.30;44.20;;;;;;5071368;28;20435;-68
2024/02/20 12:40:08;;;;;;;9.77;2.23;;;13.20;44.20;;;;;;5085484;28;20525;-68
2024/02/20 12:42:36;;;;;;;4.77;1.50;;;13.20;43.80;;;;;;5081631;28;20551;-68
2024/02/20 12:45:05;;;;;;;6.17;2.07;;;13.10;43.00;;;;;;5072252;28;20515;-68
2024/02/20 12:47:32;;;;;;;6.63;1.83;;;13.10;42.70;;;;;;5074652;28;20902;-68
2024/02/20 12:49:59;;;;;;;4.57;1.73;;;13.10;43.50;;;;;;5075692;28;20443;-68
2024/02/20 12:52:26;;;;;;;7.53;1.83;;;13.40;44.90;;;;;;5075780;28;20833;-68
2024/02/20 12:54:55;;;;;;;10.67;2.00;;;13.70;44.70;;;;;;5076308;28;20845;-68
2024/02/20 12:57:22;;;;;;;6.23;1.87;;;13.80;43.80;;;;;;5076334;28;20482;-68
2024/02/20 12:59:50;;;;;;;6.93;2.40;;;13.80;43.50;;;;;;5076226;28;20515;-69